Weather at Pista forestal Valdecebro [CLOSED]

Public forecast

Using degrees Celsius for public forecast. Weather courtesy of forecast.io.

Closest aviation weather report (METAR) to Pista forestal Valdecebro

Closest report is Teruel Airport, 9.8 nm (18.2 km) WNW. Retrieved 2021/06/12 19:30 UTC (12 minutes ago):

LETL 121930Z AUTO 14012KT CAVOK 22/11 Q1024

Closest aviation forecast (TAF) to Pista forestal Valdecebro

Closest forecast is Teruel Airport, 9.8 nm (18.2 km) WNW. Retrieved 2021/06/12 18:00 UTC (2 hours ago):

TAF LETL 121700Z 1218/1318 13012KT 9999 FEW050 TX28/1314Z TN12/1306Z BECMG 1221/1223 VRB03KT BECMG 1309/1311 13012KT